createdAt,value
2019-02-14T00:01:21.317Z,25.60
2019-02-14T00:03:52.387Z,30.00
2019-02-14T00:06:21.809Z,27.73
2019-02-14T00:08:51.255Z,26.30
2019-02-14T00:11:23.481Z,25.80
2019-02-14T00:13:53.408Z,24.47
2019-02-14T00:16:22.835Z,24.93
2019-02-14T00:18:53.267Z,24.87
2019-02-14T00:21:22.717Z,28.00
2019-02-14T00:23:52.162Z,25.30
2019-02-14T00:26:21.667Z,25.17
2019-02-14T00:28:51.093Z,28.97
2019-02-14T00:31:20.533Z,24.50
2019-02-14T00:33:51.960Z,23.23
2019-02-14T00:36:21.410Z,23.67
2019-02-14T00:38:51.812Z,28.10
2019-02-14T00:41:21.254Z,24.43
2019-02-14T00:43:50.678Z,21.80
2019-02-14T00:46:20.112Z,27.13
2019-02-14T00:48:49.534Z,24.43
2019-02-14T00:51:19.544Z,24.73
2019-02-14T00:53:50.506Z,25.00
2019-02-14T00:56:20.512Z,24.93
2019-02-14T00:58:54.475Z,24.00
2019-02-14T01:01:23.979Z,23.93
2019-02-14T01:03:53.402Z,21.10
2019-02-14T01:06:24.386Z,19.23
2019-02-14T01:08:55.341Z,20.20
2019-02-14T01:11:24.777Z,22.33
2019-02-14T01:13:56.336Z,18.00
2019-02-14T01:16:26.277Z,22.07
2019-02-14T01:18:56.181Z,20.40
2019-02-14T01:21:25.603Z,16.43
2019-02-14T01:23:57.086Z,21.77
2019-02-14T01:26:26.528Z,16.03
2019-02-14T01:28:57.594Z,19.67
2019-02-14T01:31:27.040Z,21.30
2019-02-14T01:33:56.918Z,20.50
2019-02-14T01:36:26.358Z,19.30
2019-02-14T01:38:55.775Z,19.10
2019-02-14T01:41:31.148Z,23.00
2019-02-14T01:44:01.422Z,20.90
2019-02-14T01:46:31.097Z,25.43
2019-02-14T01:49:05.432Z,23.00
2019-02-14T01:51:35.943Z,24.23
2019-02-14T01:54:05.432Z,26.17
2019-02-14T01:56:35.441Z,20.60
2019-02-14T01:59:06.409Z,28.50
2019-02-14T02:01:35.914Z,25.83
2019-02-14T02:04:05.853Z,23.70
2019-02-14T02:06:35.361Z,29.37
2019-02-14T02:09:15.591Z,34.93
2019-02-14T02:11:45.173Z,28.90
2019-02-14T02:14:16.175Z,28.90
2019-02-14T02:16:45.621Z,27.63
2019-02-14T02:19:15.117Z,32.30
2019-02-14T02:21:45.567Z,30.77
2019-02-14T02:24:14.981Z,29.67
2019-02-14T02:26:44.487Z,31.07
2019-02-14T02:29:13.910Z,30.47
2019-02-14T02:31:44.449Z,33.10
2019-02-14T02:34:17.424Z,32.07
2019-02-14T02:36:46.921Z,32.30
2019-02-14T02:39:16.357Z,31.53
2019-02-14T02:41:47.539Z,35.17
2019-02-14T02:44:17.067Z,31.77
2019-02-14T02:46:46.511Z,30.70
2019-02-14T02:49:18.126Z,32.50
2019-02-14T02:51:48.558Z,34.33
2019-02-14T02:54:18.261Z,38.30
2019-02-14T02:56:48.285Z,35.73
2019-02-14T02:59:20.659Z,38.30
2019-02-14T03:01:52.918Z,40.03
2019-02-14T03:04:25.359Z,37.93
2019-02-14T03:06:55.917Z,36.73
2019-02-14T03:09:25.340Z,36.73
2019-02-14T03:11:55.929Z,37.67
2019-02-14T03:14:25.485Z,38.23
2019-02-14T03:16:56.825Z,36.90
2019-02-14T03:19:26.248Z,36.20
2019-02-14T03:21:55.674Z,39.17
2019-02-14T03:24:25.200Z,35.43
2019-02-14T03:26:55.180Z,37.87
2019-02-14T03:29:27.787Z,39.20
2019-02-14T03:31:57.457Z,39.10
2019-02-14T03:34:26.902Z,35.97
2019-02-14T03:36:56.318Z,39.13
2019-02-14T03:39:29.384Z,33.57
2019-02-14T03:41:58.816Z,42.33
2019-02-14T03:44:28.238Z,34.83
2019-02-14T03:46:57.816Z,35.83
2019-02-14T03:49:27.629Z,35.27
2019-02-14T03:51:58.331Z,34.80
2019-02-14T03:54:27.740Z,34.53
2019-02-14T03:57:03.256Z,35.10
2019-02-14T03:59:36.007Z,35.20
2019-02-14T04:02:07.581Z,34.87
2019-02-14T04:04:37.027Z,37.20
2019-02-14T04:07:06.468Z,34.60
2019-02-14T04:09:37.891Z,36.33
2019-02-14T04:12:07.394Z,34.57
2019-02-14T04:14:36.812Z,34.63
2019-02-14T04:17:14.391Z,30.60
2019-02-14T04:19:43.877Z,31.50
2019-02-14T04:22:13.319Z,35.97
2019-02-14T04:24:42.735Z,35.80
2019-02-14T04:27:12.170Z,31.57
2019-02-14T04:29:41.596Z,27.80
2019-02-14T04:32:11.103Z,34.03
2019-02-14T04:34:40.523Z,37.30
2019-02-14T04:37:11.327Z,32.43
2019-02-14T04:39:40.694Z,32.70
2019-02-14T04:42:10.129Z,35.43
2019-02-14T04:44:39.552Z,30.47
2019-02-14T04:47:08.999Z,32.43
2019-02-14T04:49:40.044Z,36.23
2019-02-14T04:52:09.481Z,32.27
2019-02-14T04:54:38.904Z,28.37
2019-02-14T04:57:08.352Z,32.50
2019-02-14T04:59:37.763Z,32.10
2019-02-14T05:02:10.237Z,30.57
2019-02-14T05:04:38.394Z,31.00
2019-02-14T05:07:08.785Z,30.70
2019-02-14T05:09:38.218Z,30.10
2019-02-14T05:12:07.636Z,33.67
2019-02-14T05:14:37.177Z,29.80
2019-02-14T05:17:06.604Z,31.07
2019-02-14T05:19:39.143Z,30.63
2019-02-14T05:22:08.597Z,34.40
2019-02-14T05:24:38.030Z,28.33
2019-02-14T05:27:07.454Z,28.20
2019-02-14T05:29:36.886Z,29.60
2019-02-14T05:32:06.306Z,31.13
2019-02-14T05:34:35.820Z,33.10
2019-02-14T05:37:06.283Z,32.70
2019-02-14T05:39:35.729Z,32.70
2019-02-14T05:42:05.214Z,31.07
2019-02-14T05:44:34.662Z,29.27
2019-02-14T05:47:04.148Z,30.93
2019-02-14T05:49:33.583Z,33.73
2019-02-14T05:52:02.999Z,28.47
2019-02-14T05:54:34.079Z,27.90
2019-02-14T05:57:03.499Z,32.27
2019-02-14T05:59:33.008Z,31.50
2019-02-14T06:02:02.427Z,34.03
2019-02-14T06:04:31.864Z,29.03
2019-02-14T06:07:01.490Z,28.43
2019-02-14T06:09:31.290Z,29.20
2019-02-14T06:12:00.708Z,27.40
2019-02-14T06:14:30.144Z,29.43
2019-02-14T06:16:59.579Z,29.50
2019-02-14T06:19:29.019Z,34.67
2019-02-14T06:21:58.441Z,26.07
2019-02-14T06:24:29.643Z,30.20
2019-02-14T06:26:59.065Z,27.97
2019-02-14T06:29:29.071Z,36.83
2019-02-14T06:31:58.501Z,31.60
2019-02-14T06:34:27.945Z,28.33
2019-02-14T06:36:57.372Z,32.77
2019-02-14T06:39:26.826Z,29.67
2019-02-14T06:41:56.238Z,29.37
2019-02-14T06:44:25.680Z,27.93
2019-02-14T06:46:55.173Z,27.20
2019-02-14T06:49:26.368Z,29.20
2019-02-14T06:51:55.733Z,27.70
2019-02-14T06:54:25.179Z,29.63
2019-02-14T06:56:54.602Z,30.33
2019-02-14T06:59:24.066Z,28.83
2019-02-14T07:01:53.451Z,32.43
2019-02-14T07:04:22.890Z,32.00
2019-02-14T07:06:52.373Z,28.97
2019-02-14T07:09:21.818Z,30.57
2019-02-14T07:11:51.303Z,30.00
2019-02-14T07:14:23.213Z,29.80
2019-02-14T07:16:52.653Z,26.37
2019-02-14T07:19:22.080Z,29.70
2019-02-14T07:21:51.517Z,31.10
2019-02-14T07:24:20.940Z,27.60
2019-02-14T07:26:50.447Z,28.47
2019-02-14T07:29:19.928Z,24.70
2019-02-14T07:31:49.374Z,24.33
2019-02-14T07:34:19.362Z,25.63
2019-02-14T07:36:50.490Z,27.93
2019-02-14T07:39:19.927Z,27.93
2019-02-14T07:41:49.437Z,30.17
2019-02-14T07:44:18.861Z,34.17
2019-02-14T07:46:48.367Z,30.27
2019-02-14T07:49:19.392Z,27.63
2019-02-14T07:51:49.107Z,26.30
2019-02-14T07:54:18.520Z,26.63
2019-02-14T07:56:48.235Z,29.17
2019-02-14T07:59:17.744Z,29.67
2019-02-14T08:01:47.250Z,31.30
2019-02-14T08:04:16.676Z,29.97
2019-02-14T08:06:46.126Z,29.37
2019-02-14T08:09:15.550Z,29.17
2019-02-14T08:11:44.998Z,30.13
2019-02-14T08:14:14.444Z,32.30
2019-02-14T08:16:43.878Z,28.03
2019-02-14T08:19:13.876Z,29.23
2019-02-14T08:21:43.294Z,27.30
2019-02-14T08:24:15.669Z,29.87
2019-02-14T08:26:45.104Z,25.83
2019-02-14T08:29:14.538Z,25.93
2019-02-14T08:31:45.630Z,23.57
2019-02-14T08:34:15.123Z,25.53
2019-02-14T08:36:44.556Z,27.73
2019-02-14T08:39:16.924Z,25.57
2019-02-14T08:41:46.367Z,23.93
2019-02-14T08:44:15.784Z,24.87
2019-02-14T08:46:45.216Z,25.87
2019-02-14T08:49:14.643Z,24.87
2019-02-14T08:51:44.071Z,27.00
2019-02-14T08:54:13.490Z,28.80
2019-02-14T08:56:42.935Z,26.00
2019-02-14T08:59:12.353Z,25.57
2019-02-14T09:01:41.800Z,28.93
2019-02-14T09:04:11.283Z,28.83
2019-02-14T09:06:40.793Z,27.73
2019-02-14T09:09:10.245Z,25.30
2019-02-14T09:11:39.732Z,24.50
2019-02-14T09:14:09.160Z,24.17
2019-02-14T09:16:40.795Z,24.47
2019-02-14T09:19:10.228Z,26.07
2019-02-14T09:21:42.274Z,24.23
2019-02-14T09:24:11.692Z,20.53
2019-02-14T09:26:43.915Z,24.67
2019-02-14T09:29:14.421Z,26.00
2019-02-14T09:31:44.009Z,25.57
2019-02-14T09:34:13.464Z,21.97
2019-02-14T09:36:42.955Z,25.30
2019-02-14T09:39:12.448Z,22.40
2019-02-14T09:41:41.970Z,21.63
2019-02-14T09:44:11.389Z,19.50
2019-02-14T09:46:42.537Z,20.80
2019-02-14T09:49:11.971Z,20.50
2019-02-14T09:51:41.740Z,19.13
2019-02-14T09:54:11.207Z,20.77
2019-02-14T09:56:40.615Z,20.47
2019-02-14T09:59:15.117Z,25.57
2019-02-14T10:01:44.545Z,21.70
2019-02-14T10:04:13.987Z,19.83
2019-02-14T10:06:43.403Z,20.03
2019-02-14T10:09:12.906Z,22.30
2019-02-14T10:11:42.353Z,20.80
2019-02-14T10:14:14.640Z,20.63
2019-02-14T10:16:44.085Z,18.60
2019-02-14T10:19:13.514Z,21.07
2019-02-14T10:21:43.038Z,21.97
2019-02-14T10:24:12.462Z,16.67
2019-02-14T10:26:41.893Z,26.27
2019-02-14T10:29:11.378Z,20.73
2019-02-14T10:31:40.888Z,16.93
2019-02-14T10:34:11.190Z,18.03
2019-02-14T10:36:40.678Z,20.57
2019-02-14T10:39:10.201Z,21.50
2019-02-14T10:41:39.713Z,15.60
2019-02-14T10:44:09.127Z,16.73
2019-02-14T10:46:38.597Z,19.30
2019-02-14T10:49:10.622Z,14.57
2019-02-14T10:51:42.909Z,15.30
2019-02-14T10:54:12.484Z,14.97
2019-02-14T10:56:44.707Z,17.43
2019-02-14T10:59:16.022Z,17.43
2019-02-14T11:01:45.551Z,17.77
2019-02-14T11:04:14.998Z,13.73
2019-02-14T11:06:44.457Z,13.67
2019-02-14T11:09:13.949Z,14.63
2019-02-14T11:11:44.879Z,15.53
2019-02-14T11:14:15.751Z,15.87
2019-02-14T11:16:45.173Z,17.50
2019-02-14T11:19:14.615Z,13.60
2019-02-14T11:21:45.553Z,14.10
2019-02-14T11:24:16.613Z,14.53
2019-02-14T11:26:46.667Z,14.53
2019-02-14T11:29:16.411Z,14.43
2019-02-14T11:31:45.824Z,13.33
2019-02-14T11:34:16.335Z,13.70
2019-02-14T11:36:45.773Z,12.97
2019-02-14T11:39:15.210Z,14.97
2019-02-14T11:41:46.151Z,13.27
2019-02-14T11:44:16.559Z,13.60
2019-02-14T11:46:51.597Z,13.70
2019-02-14T11:49:17.138Z,12.90
2019-02-14T11:51:46.576Z,13.67
2019-02-14T11:54:16.015Z,14.07
2019-02-14T11:56:45.444Z,13.10
2019-02-14T11:59:14.957Z,12.47
2019-02-14T12:01:55.167Z,11.90
2019-02-14T12:04:20.146Z,12.53
2019-02-14T12:06:52.637Z,11.70
2019-02-14T12:09:22.148Z,12.53
2019-02-14T12:11:55.744Z,13.63
2019-02-14T12:14:27.746Z,11.80
2019-02-14T12:16:59.979Z,12.63
2019-02-14T12:19:29.426Z,12.43
2019-02-14T12:21:58.865Z,11.97
2019-02-14T12:24:28.324Z,11.87
2019-02-14T12:26:57.779Z,12.40
2019-02-14T12:29:27.210Z,11.67
2019-02-14T12:31:56.732Z,11.63
2019-02-14T12:34:26.262Z,10.83
2019-02-14T12:36:57.232Z,11.37
2019-02-14T12:39:26.656Z,10.97
2019-02-14T12:41:56.100Z,10.23
2019-02-14T12:44:25.520Z,12.23
2019-02-14T12:46:55.034Z,11.30
2019-02-14T12:49:24.481Z,9.93
2019-02-14T12:51:55.417Z,10.17
2019-02-14T12:54:24.864Z,9.87
2019-02-14T12:56:54.283Z,9.90
2019-02-14T12:59:23.704Z,9.17
2019-02-14T13:01:53.282Z,10.60
2019-02-14T13:04:24.438Z,9.07
2019-02-14T13:06:53.822Z,8.80
2019-02-14T13:09:24.374Z,8.00
2019-02-14T13:11:53.807Z,8.43
2019-02-14T13:14:23.265Z,8.43
2019-02-14T13:16:52.744Z,6.93
2019-02-14T13:19:22.170Z,6.33
2019-02-14T13:21:51.744Z,6.17
2019-02-14T13:24:28.176Z,5.10
2019-02-14T13:27:00.858Z,4.03
2019-02-14T13:29:30.404Z,3.97
2019-02-14T13:31:59.838Z,4.00
2019-02-14T13:34:30.394Z,3.70
2019-02-14T13:37:02.047Z,4.20
2019-02-14T13:39:32.600Z,3.63
2019-02-14T13:42:02.025Z,3.93
2019-02-14T13:44:31.535Z,3.40
2019-02-14T13:47:00.955Z,3.50
2019-02-14T13:49:32.685Z,4.13
2019-02-14T13:52:02.088Z,3.23
2019-02-14T13:54:31.588Z,2.90
2019-02-14T13:57:01.014Z,2.30
2019-02-14T13:59:32.087Z,2.63
2019-02-14T14:02:03.569Z,3.03
2019-02-14T14:04:32.963Z,2.83
2019-02-14T14:07:03.710Z,2.70
2019-02-14T14:09:38.732Z,3.03
2019-02-14T14:12:04.314Z,2.83
2019-02-14T14:14:34.315Z,3.40
2019-02-14T14:17:06.543Z,3.87
2019-02-14T14:19:35.978Z,4.47
2019-02-14T14:22:07.196Z,4.50
2019-02-14T14:24:39.174Z,4.57
2019-02-14T14:27:07.811Z,3.97
2019-02-14T14:29:38.384Z,4.27
2019-02-14T14:32:07.804Z,4.20
2019-02-14T14:34:37.252Z,4.40
2019-02-14T14:37:06.671Z,3.87
2019-02-14T14:39:36.108Z,4.30
2019-02-14T14:42:07.185Z,3.57
2019-02-14T14:44:38.270Z,4.83
2019-02-14T14:47:09.131Z,4.13
2019-02-14T14:49:38.572Z,4.53
2019-02-14T14:52:08.064Z,4.90
2019-02-14T14:54:37.498Z,4.40
2019-02-14T14:57:06.919Z,4.13
2019-02-14T14:59:37.890Z,5.07
2019-02-14T15:02:07.305Z,6.70
2019-02-14T15:04:36.880Z,5.70
2019-02-14T15:07:06.364Z,4.83
2019-02-14T15:09:35.795Z,4.87
2019-02-14T15:12:05.220Z,4.63
2019-02-14T15:14:34.644Z,3.70
2019-02-14T15:17:05.734Z,4.77
2019-02-14T15:19:35.320Z,3.87
2019-02-14T15:22:06.351Z,4.53
2019-02-14T15:24:35.848Z,5.17
2019-02-14T15:27:05.267Z,4.13
2019-02-14T15:29:37.660Z,4.23
2019-02-14T15:32:07.078Z,4.60
2019-02-14T15:34:36.522Z,3.93
2019-02-14T15:37:06.039Z,3.43
2019-02-14T15:39:36.019Z,3.53
2019-02-14T15:42:05.433Z,3.30
2019-02-14T15:44:34.867Z,3.80
2019-02-14T15:47:04.333Z,3.03
2019-02-14T15:49:33.753Z,4.00
2019-02-14T15:52:05.503Z,3.80
2019-02-14T15:54:35.442Z,3.87
2019-02-14T15:57:05.001Z,4.63
2019-02-14T15:59:35.608Z,4.53
2019-02-14T16:02:06.238Z,4.40
2019-02-14T16:04:36.153Z,4.63
2019-02-14T16:07:06.235Z,4.40
2019-02-14T16:09:38.154Z,10.07
2019-02-14T16:12:06.883Z,10.10
2019-02-14T16:14:36.297Z,4.20
2019-02-14T16:17:06.757Z,4.87
2019-02-14T16:19:37.092Z,4.80
2019-02-14T16:22:06.535Z,5.60
2019-02-14T16:24:35.961Z,5.80
2019-02-14T16:27:05.383Z,5.13
2019-02-14T16:29:34.836Z,4.80
2019-02-14T16:32:04.257Z,4.23
2019-02-14T16:34:33.745Z,4.70
2019-02-14T16:37:03.750Z,5.33
2019-02-14T16:39:33.160Z,7.63
2019-02-14T16:42:05.648Z,6.73
2019-02-14T16:44:35.047Z,7.60
2019-02-14T16:47:04.533Z,11.27
2019-02-14T16:49:33.991Z,8.60
2019-02-14T16:52:03.565Z,10.27
2019-02-14T16:54:32.991Z,8.67
2019-02-14T16:57:02.424Z,11.87
2019-02-14T16:59:31.836Z,7.93
2019-02-14T17:02:01.277Z,7.83
2019-02-14T17:04:30.687Z,7.53
2019-02-14T17:07:00.102Z,7.33
2019-02-14T17:09:29.556Z,6.60
2019-02-14T17:11:58.967Z,5.63
2019-02-14T17:14:30.033Z,6.67
2019-02-14T17:17:00.976Z,29.20
2019-02-14T17:19:30.482Z,12.97
2019-02-14T17:21:59.902Z,5.93
2019-02-14T17:24:31.493Z,6.73
2019-02-14T17:27:01.730Z,6.67
2019-02-14T17:29:31.292Z,5.00
2019-02-14T17:32:00.798Z,5.40
2019-02-14T17:34:30.211Z,6.80
2019-02-14T17:36:59.638Z,6.00
2019-02-14T17:39:29.130Z,8.37
2019-02-14T17:41:58.580Z,11.00
2019-02-14T17:44:28.016Z,9.57
2019-02-14T17:46:57.513Z,10.93
2019-02-14T17:49:26.962Z,8.97
2019-02-14T17:51:56.377Z,8.00
2019-02-14T17:54:27.359Z,7.77
2019-02-14T17:56:56.783Z,11.93
2019-02-14T17:59:26.201Z,7.57
2019-02-14T18:01:55.644Z,8.03
2019-02-14T18:04:28.085Z,8.10
2019-02-14T18:06:57.507Z,7.87
2019-02-14T18:09:27.046Z,8.03
2019-02-14T18:11:56.477Z,7.93
2019-02-14T18:14:26.143Z,9.33
2019-02-14T18:16:55.565Z,16.87
2019-02-14T18:19:25.021Z,15.13
2019-02-14T18:21:55.955Z,13.30
2019-02-14T18:24:28.362Z,9.33
2019-02-14T18:26:57.822Z,7.90
2019-02-14T18:29:27.238Z,6.47
2019-02-14T18:31:56.785Z,6.73
2019-02-14T18:34:26.208Z,9.23
2019-02-14T18:36:55.651Z,5.70
2019-02-14T18:39:26.550Z,4.83
2019-02-14T18:41:58.491Z,4.20
2019-02-14T18:44:29.377Z,4.73
2019-02-14T18:46:58.887Z,4.40
2019-02-14T18:49:28.371Z,4.97
2019-02-14T18:51:57.808Z,4.13
2019-02-14T18:54:27.220Z,5.10
2019-02-14T18:56:56.701Z,7.40
2019-02-14T18:59:26.203Z,12.77
2019-02-14T19:01:55.633Z,13.93
2019-02-14T19:04:25.086Z,15.43
2019-02-14T19:07:02.137Z,16.30
2019-02-14T19:09:31.672Z,14.50
2019-02-14T19:12:01.089Z,14.57
2019-02-14T19:14:30.583Z,11.13
2019-02-14T19:17:01.668Z,11.53
2019-02-14T19:19:32.189Z,10.67
2019-02-14T19:22:01.688Z,10.33
2019-02-14T19:24:31.226Z,9.30
2019-02-14T19:27:00.872Z,11.50
2019-02-14T19:29:30.320Z,12.37
2019-02-14T19:31:59.766Z,13.27
2019-02-14T19:34:29.223Z,12.63
2019-02-14T19:36:58.664Z,14.43
2019-02-14T19:39:28.156Z,12.33
2019-02-14T19:41:57.690Z,14.63
2019-02-14T19:44:27.401Z,13.27
2019-02-14T19:46:56.929Z,13.50
2019-02-14T19:49:26.350Z,14.93
2019-02-14T19:51:55.787Z,17.40
2019-02-14T19:54:25.223Z,12.87
2019-02-14T19:56:54.652Z,16.97
2019-02-14T19:59:24.098Z,12.40
2019-02-14T20:01:53.541Z,12.10
2019-02-14T20:04:22.967Z,14.20
2019-02-14T20:06:53.500Z,16.10
2019-02-14T20:09:22.992Z,19.03
2019-02-14T20:11:52.500Z,17.97
2019-02-14T20:14:22.032Z,18.10
2019-02-14T20:16:51.462Z,18.87
2019-02-14T20:19:20.917Z,19.50
2019-02-14T20:21:50.409Z,18.17
2019-02-14T20:24:21.738Z,19.87
2019-02-14T20:26:51.252Z,19.50
2019-02-14T20:29:20.673Z,17.07
2019-02-14T20:31:50.276Z,16.67
2019-02-14T20:34:22.683Z,25.33
2019-02-14T20:36:52.271Z,13.43
2019-02-14T20:39:21.750Z,16.07
2019-02-14T20:41:51.325Z,15.33
2019-02-14T20:44:20.838Z,16.77
2019-02-14T20:46:50.271Z,14.90
2019-02-14T20:49:19.762Z,13.47
2019-02-14T20:51:49.287Z,12.13
2019-02-14T20:54:18.775Z,12.63
2019-02-14T20:56:48.291Z,14.13
2019-02-14T20:59:18.791Z,13.97
2019-02-14T21:01:48.227Z,13.60
2019-02-14T21:04:17.878Z,15.63
2019-02-14T21:06:48.449Z,17.30
2019-02-14T21:09:17.931Z,17.73
2019-02-14T21:11:54.364Z,13.77
2019-02-14T21:14:18.497Z,16.13
2019-02-14T21:16:47.993Z,14.97
2019-02-14T21:19:17.423Z,20.53
2019-02-14T21:21:46.919Z,16.73
2019-02-14T21:24:16.495Z,17.60
2019-02-14T21:26:45.933Z,13.97
2019-02-14T21:29:15.405Z,14.87
2019-02-14T21:31:45.056Z,14.30
2019-02-14T21:34:14.494Z,12.83
2019-02-14T21:36:43.940Z,18.57
2019-02-14T21:39:13.376Z,21.20
2019-02-14T21:41:42.954Z,23.70
2019-02-14T21:44:12.380Z,23.00
2019-02-14T21:46:41.990Z,20.43
2019-02-14T21:49:11.496Z,18.43
2019-02-14T21:51:41.094Z,19.23
2019-02-14T21:54:10.637Z,16.13
2019-02-14T21:56:40.184Z,15.73
2019-02-14T21:59:09.661Z,16.87
2019-02-14T22:01:39.191Z,15.57
2019-02-14T22:04:09.595Z,16.57
2019-02-14T22:06:40.156Z,14.23
2019-02-14T22:09:11.307Z,13.43
2019-02-14T22:11:41.020Z,14.10
2019-02-14T22:14:10.433Z,15.03
2019-02-14T22:16:39.855Z,13.87
2019-02-14T22:19:09.358Z,13.73
2019-02-14T22:21:38.798Z,14.10
2019-02-14T22:24:08.225Z,16.07
2019-02-14T22:26:37.664Z,15.50
2019-02-14T22:29:07.081Z,15.80
2019-02-14T22:31:36.606Z,16.03
2019-02-14T22:34:06.034Z,21.80
2019-02-14T22:36:35.452Z,25.87
2019-02-14T22:39:06.334Z,26.67
2019-02-14T22:41:37.374Z,22.53
2019-02-14T22:44:06.812Z,23.73
2019-02-14T22:46:36.226Z,20.70
2019-02-14T22:49:07.336Z,16.80
2019-02-14T22:51:36.752Z,17.70
2019-02-14T22:54:06.207Z,16.20
2019-02-14T22:56:35.626Z,15.90
2019-02-14T22:59:05.044Z,17.17
2019-02-14T23:01:34.836Z,18.00
2019-02-14T23:04:04.457Z,16.50
2019-02-14T23:06:34.876Z,15.10
2019-02-14T23:09:06.642Z,20.27
2019-02-14T23:11:37.773Z,21.27
2019-02-14T23:14:07.257Z,20.23
2019-02-14T23:16:36.775Z,20.47
2019-02-14T23:19:06.318Z,20.13
2019-02-14T23:21:37.252Z,18.30
2019-02-14T23:24:06.672Z,22.80
2019-02-14T23:26:36.162Z,21.63
2019-02-14T23:29:05.638Z,23.33
2019-02-14T23:31:35.132Z,18.93
2019-02-14T23:34:04.642Z,19.43
2019-02-14T23:36:34.071Z,20.37
2019-02-14T23:39:04.725Z,20.93
2019-02-14T23:41:35.791Z,21.20
2019-02-14T23:44:05.286Z,20.47
2019-02-14T23:46:34.751Z,19.17
2019-02-14T23:49:04.165Z,21.07
2019-02-14T23:51:33.604Z,19.43
2019-02-14T23:54:03.027Z,21.63
2019-02-14T23:56:32.465Z,22.63
2019-02-14T23:59:01.889Z,20.07
